Time;durP1;ratioP1;P1;durP2;ratioP2;P2;SDS_P1;SDS_P2;PMS_P1;PMS_P2;Temp;Humidity;BMP_temperature;BMP_pressure;BME280_temperature;BME280_humidity;BME280_pressure;Samples;Min_cycle;Max_cycle;Signal;HPM_P1;HPM_P2
2023/10/24 07:00:30;;;;;;;;;6.00;6.00;;;;;;;;6206484;22;45299;-71
2023/10/24 07:02:55;;;;;;;;;8.00;8.00;;;;;;;;6212330;22;45336;-71
2023/10/24 07:05:21;;;;;;;;;7.00;7.00;;;;;;;;6213048;22;45323;-71
2023/10/24 07:07:46;;;;;;;;;9.00;7.00;;;;;;;;6186857;22;45239;-71
2023/10/24 07:10:11;;;;;;;;;6.33;5.00;;;;;;;;6214925;22;45333;-72
2023/10/24 07:12:36;;;;;;;;;7.00;7.00;;;;;;;;6215279;22;45233;-71
2023/10/24 07:15:03;;;;;;;;;7.00;6.00;;;;;;;;6214010;22;45320;-71
2023/10/24 07:17:28;;;;;;;;;7.33;6.00;;;;;;;;6215384;22;45288;-71
2023/10/24 07:19:54;;;;;;;;;7.00;7.00;;;;;;;;6214693;22;45273;-71
2023/10/24 07:22:19;;;;;;;;;6.00;6.00;;;;;;;;6215030;22;45264;-71
2023/10/24 07:24:44;;;;;;;;;9.33;6.33;;;;;;;;6214871;22;45193;-72
2023/10/24 07:27:10;;;;;;;;;7.00;5.33;;;;;;;;6214594;22;45354;-71
2023/10/24 07:29:35;;;;;;;;;6.67;6.67;;;;;;;;6214811;22;45422;-71
2023/10/24 07:32:00;;;;;;;;;6.00;6.00;;;;;;;;6186751;22;47922;-72
2023/10/24 07:34:25;;;;;;;;;8.00;6.00;;;;;;;;6215163;22;45288;-72
2023/10/24 07:36:51;;;;;;;;;8.33;7.33;;;;;;;;6215593;22;45406;-72
2023/10/24 07:39:16;;;;;;;;;6.00;6.00;;;;;;;;6214358;22;45565;-72
2023/10/24 07:41:41;;;;;;;;;6.67;6.67;;;;;;;;6215291;22;45237;-72
2023/10/24 07:44:06;;;;;;;;;7.00;7.00;;;;;;;;6214353;22;45595;-72
2023/10/24 07:46:32;;;;;;;;;8.00;6.75;;;;;;;;6215649;22;45174;-71
2023/10/24 07:48:57;;;;;;;;;6.00;5.00;;;;;;;;6214596;22;45253;-72
2023/10/24 07:51:25;;;;;;;;;5.67;5.67;;;;;;;;6215430;22;45220;-72
2023/10/24 07:53:50;;;;;;;;;7.00;7.00;;;;;;;;6214176;22;45250;-72
2023/10/24 07:56:15;;;;;;;;;4.00;4.00;;;;;;;;6214796;22;45516;-72
2023/10/24 07:58:40;;;;;;;;;5.00;5.00;;;;;;;;6208989;22;45321;-72
2023/10/24 08:01:06;;;;;;;;;4.00;4.00;;;;;;;;6158701;23;46393;-72
2023/10/24 08:03:31;;;;;;;;;4.33;4.00;;;;;;;;6185716;23;44584;-73
2023/10/24 08:05:56;;;;;;;;;6.67;6.00;;;;;;;;6185978;23;45360;-72
2023/10/24 08:08:21;;;;;;;;;5.00;4.67;;;;;;;;6185690;23;45410;-72
2023/10/24 08:10:46;;;;;;;;;5.00;2.67;;;;;;;;6186102;23;46057;-72
2023/10/24 08:13:12;;;;;;;;;4.67;3.67;;;;;;;;6158180;23;45353;-71
2023/10/24 08:15:37;;;;;;;;;3.67;3.67;;;;;;;;6185914;23;45195;-72
2023/10/24 08:18:02;;;;;;;;;2.00;2.00;;;;;;;;6185428;23;45329;-71
2023/10/24 08:20:27;;;;;;;;;6.00;4.00;;;;;;;;6185970;23;46226;-71
2023/10/24 08:22:53;;;;;;;;;4.00;3.33;;;;;;;;6185275;23;45326;-71
2023/10/24 08:25:18;;;;;;;;;4.00;3.33;;;;;;;;6186107;23;45241;-71
2023/10/24 08:27:44;;;;;;;;;5.00;5.00;;;;;;;;6185138;23;45267;-72
2023/10/24 08:30:09;;;;;;;;;7.33;5.00;;;;;;;;6183681;23;45546;-71
2023/10/24 08:32:35;;;;;;;;;5.67;5.67;;;;;;;;6153986;23;45415;-71
2023/10/24 08:35:00;;;;;;;;;5.33;4.00;;;;;;;;6182240;23;44681;-70
2023/10/24 08:37:25;;;;;;;;;5.00;5.00;;;;;;;;6154313;23;45659;-71
2023/10/24 08:39:51;;;;;;;;;4.00;4.00;;;;;;;;6154411;23;45656;-71
2023/10/24 08:42:16;;;;;;;;;5.00;5.00;;;;;;;;6182011;23;45423;-70
2023/10/24 08:44:42;;;;;;;;;4.00;4.00;;;;;;;;6181992;23;45356;-71
2023/10/24 08:47:11;;;;;;;;;7.00;5.67;;;;;;;;6183884;23;45222;-70
2023/10/24 08:49:36;;;;;;;;;3.67;3.67;;;;;;;;6184050;23;45103;-71
2023/10/24 08:52:02;;;;;;;;;6.00;6.00;;;;;;;;6182610;23;45361;-72
2023/10/24 08:54:27;;;;;;;;;6.00;6.00;;;;;;;;6157235;23;45404;-70
2023/10/24 08:56:53;;;;;;;;;4.33;2.00;;;;;;;;6182938;23;45362;-70
2023/10/24 08:59:20;;;;;;;;;4.00;3.00;;;;;;;;6182866;23;45403;-68
2023/10/24 09:01:46;;;;;;;;;3.67;2.67;;;;;;;;6157200;23;45208;-70
2023/10/24 09:04:11;;;;;;;;;5.00;4.00;;;;;;;;6183866;23;45397;-70
2023/10/24 09:06:37;;;;;;;;;3.00;1.67;;;;;;;;6183183;23;45291;-70
2023/10/24 09:09:03;;;;;;;;;4.00;3.00;;;;;;;;6182853;23;45312;-70
2023/10/24 09:11:47;;;;;;;;;4.00;2.00;;;;;;;;6184094;23;45192;-70
2023/10/24 09:14:12;;;;;;;;;1.00;1.00;;;;;;;;6183388;23;45383;-70
2023/10/24 09:16:38;;;;;;;;;2.00;2.00;;;;;;;;6156524;23;47001;-70
2023/10/24 09:19:11;;;;;;;;;2.00;2.00;;;;;;;;6183229;23;45222;-70
2023/10/24 09:21:36;;;;;;;;;5.00;2.33;;;;;;;;6184180;23;45301;-70
2023/10/24 09:24:04;;;;;;;;;2.00;2.00;;;;;;;;6183566;23;45595;-70
2023/10/24 09:26:30;;;;;;;;;2.00;2.00;;;;;;;;6184728;23;45153;-70
2023/10/24 09:28:56;;;;;;;;;4.00;1.00;;;;;;;;6184312;23;44977;-69
2023/10/24 09:31:22;;;;;;;;;5.00;2.00;;;;;;;;6185121;23;45144;-70
2023/10/24 09:33:47;;;;;;;;;1.00;1.00;;;;;;;;6184929;23;45377;-69
2023/10/24 09:36:21;;;;;;;;;2.00;2.00;;;;;;;;6185011;23;45422;-69
2023/10/24 09:38:47;;;;;;;;;1.00;1.00;;;;;;;;6184642;23;46289;-72
2023/10/24 09:41:13;;;;;;;;;1.00;1.00;;;;;;;;6182762;23;45277;-72
2023/10/24 09:43:41;;;;;;;;;2.00;2.00;;;;;;;;6184410;23;45508;-72
2023/10/24 09:46:06;;;;;;;;;0.00;0.00;;;;;;;;6185140;23;45203;-71
2023/10/24 09:48:33;;;;;;;;;2.00;0.00;;;;;;;;6184710;23;45222;-71
2023/10/24 09:50:58;;;;;;;;;1.00;1.00;;;;;;;;6159433;23;45232;-71
2023/10/24 09:53:24;;;;;;;;;3.00;2.00;;;;;;;;6159321;23;45275;-71
2023/10/24 09:55:50;;;;;;;;;3.33;2.00;;;;;;;;6186673;23;45585;-71
2023/10/24 09:58:16;;;;;;;;;1.00;1.00;;;;;;;;6185688;22;45215;-71
2023/10/24 10:00:41;;;;;;;;;1.00;0.67;;;;;;;;6186321;23;45230;-71
2023/10/24 10:03:09;;;;;;;;;1.00;1.00;;;;;;;;6159239;23;45365;-70
2023/10/24 10:05:36;;;;;;;;;0.00;0.00;;;;;;;;6186253;23;45230;-70
2023/10/24 10:08:04;;;;;;;;;1.33;1.00;;;;;;;;6185228;23;45544;-71
2023/10/24 10:10:29;;;;;;;;;0.00;0.00;;;;;;;;6186292;23;45294;-71
2023/10/24 10:12:59;;;;;;;;;1.00;1.00;;;;;;;;6185788;23;45155;-71
2023/10/24 10:15:42;;;;;;;;;1.00;1.00;;;;;;;;6186630;23;45249;-71
2023/10/24 10:18:23;;;;;;;;;2.00;1.00;;;;;;;;6158773;23;46726;-71
2023/10/24 10:20:56;;;;;;;;;3.33;0.67;;;;;;;;6186087;23;45203;-71
2023/10/24 10:23:30;;;;;;;;;0.67;0.67;;;;;;;;6186080;23;45221;-71
2023/10/24 10:25:55;;;;;;;;;3.00;0.67;;;;;;;;6186322;23;45322;-72
2023/10/24 10:28:30;;;;;;;;;2.67;0.67;;;;;;;;6185273;23;46014;-71
2023/10/24 10:31:21;;;;;;;;;1.00;1.00;;;;;;;;6186376;23;45305;-71
2023/10/24 10:33:47;;;;;;;;;0.67;0.67;;;;;;;;6149768;23;45383;-71
2023/10/24 10:36:12;;;;;;;;;0.00;0.00;;;;;;;;6186553;23;45218;-72
2023/10/24 10:38:43;;;;;;;;;1.00;0.67;;;;;;;;6185943;23;45301;-71
2023/10/24 10:41:24;;;;;;;;;4.00;0.33;;;;;;;;6186163;23;45242;-72
2023/10/24 10:43:49;;;;;;;;;1.33;1.33;;;;;;;;6185502;23;45269;-71
2023/10/24 10:46:19;;;;;;;;;1.00;1.00;;;;;;;;6186741;23;45314;-72
2023/10/24 10:48:47;;;;;;;;;0.67;0.67;;;;;;;;6185421;23;46121;-73
2023/10/24 10:51:16;;;;;;;;;2.00;0.67;;;;;;;;6159241;23;45324;-73
2023/10/24 10:53:47;;;;;;;;;1.67;1.67;;;;;;;;6185847;23;45301;-72
2023/10/24 10:56:20;;;;;;;;;0.00;0.00;;;;;;;;6186487;23;45258;-72
2023/10/24 10:58:45;;;;;;;;;6.67;3.33;;;;;;;;6185003;22;45284;-72
2023/10/24 11:01:29;;;;;;;;;46.00;35.25;;;;;;;;6185748;23;45336;-72
2023/10/24 11:03:56;;;;;;;;;1.00;1.00;;;;;;;;6186070;23;45183;-72
2023/10/24 11:06:25;;;;;;;;;2.00;0.33;;;;;;;;6185461;23;45301;-72
2023/10/24 11:09:07;;;;;;;;;0.67;0.67;;;;;;;;6185246;23;46295;-71
2023/10/24 11:11:32;;;;;;;;;1.00;1.00;;;;;;;;6186260;23;45218;-71
2023/10/24 11:14:17;;;;;;;;;2.00;0.00;;;;;;;;6158561;23;45296;-72
2023/10/24 11:16:44;;;;;;;;;0.67;0.67;;;;;;;;6185091;23;45205;-71
2023/10/24 11:19:20;;;;;;;;;0.67;0.67;;;;;;;;6186029;23;45357;-72
2023/10/24 11:21:46;;;;;;;;;0.33;0.33;;;;;;;;6158873;23;45571;-71
2023/10/24 11:24:20;;;;;;;;;2.33;0.00;;;;;;;;6185845;23;45341;-71
2023/10/24 11:26:45;;;;;;;;;3.67;1.00;;;;;;;;6185320;23;45246;-70
2023/10/24 11:29:11;;;;;;;;;3.67;3.67;;;;;;;;6185423;23;45314;-70
2023/10/24 11:31:36;;;;;;;;;1.00;0.00;;;;;;;;6186034;23;45360;-71
2023/10/24 11:34:03;;;;;;;;;3.00;0.67;;;;;;;;6186235;23;45218;-71
2023/10/24 11:36:28;;;;;;;;;2.67;0.00;;;;;;;;6184902;23;45540;-71
2023/10/24 11:38:54;;;;;;;;;1.00;1.00;;;;;;;;6185555;23;46299;-71
2023/10/24 11:41:19;;;;;;;;;3.33;1.67;;;;;;;;6186308;23;45165;-70
2023/10/24 11:43:45;;;;;;;;;0.00;0.00;;;;;;;;6185709;23;45218;-71
2023/10/24 11:46:10;;;;;;;;;1.33;0.00;;;;;;;;6185682;23;45238;-71
2023/10/24 11:48:36;;;;;;;;;4.67;2.33;;;;;;;;6185659;23;45305;-71
2023/10/24 11:51:02;;;;;;;;;1.33;0.33;;;;;;;;6159037;23;45184;-71
2023/10/24 11:53:28;;;;;;;;;3.00;2.00;;;;;;;;6186004;23;45226;-71
2023/10/24 11:55:53;;;;;;;;;0.00;0.00;;;;;;;;6185846;23;45477;-71
2023/10/24 11:58:19;;;;;;;;;3.00;1.00;;;;;;;;6185065;22;46219;-72
2023/10/24 12:00:44;;;;;;;;;0.67;0.67;;;;;;;;6184614;23;45368;-71
2023/10/24 12:03:10;;;;;;;;;1.33;0.00;;;;;;;;6186031;23;45318;-71
2023/10/24 12:05:35;;;;;;;;;1.00;1.00;;;;;;;;6158419;23;46253;-71
2023/10/24 12:08:01;;;;;;;;;0.67;0.67;;;;;;;;6185472;23;45905;-71
2023/10/24 12:10:27;;;;;;;;;2.33;0.67;;;;;;;;6185719;23;45235;-70
2023/10/24 12:12:57;;;;;;;;;2.00;0.67;;;;;;;;6185531;23;45321;-72
2023/10/24 12:15:23;;;;;;;;;0.00;0.00;;;;;;;;6185837;23;45329;-72
2023/10/24 12:17:48;;;;;;;;;0.67;0.67;;;;;;;;6185803;23;45159;-71
2023/10/24 12:20:13;;;;;;;;;0.67;0.67;;;;;;;;6185897;23;45285;-71
2023/10/24 12:22:38;;;;;;;;;2.33;1.00;;;;;;;;6186283;23;45388;-71
2023/10/24 12:25:04;;;;;;;;;1.33;0.67;;;;;;;;6158967;23;46030;-71
2023/10/24 12:27:29;;;;;;;;;1.00;1.00;;;;;;;;6186015;23;46273;-71
2023/10/24 12:29:54;;;;;;;;;0.00;0.00;;;;;;;;6185656;23;45234;-72
2023/10/24 12:32:19;;;;;;;;;0.00;0.00;;;;;;;;6186270;23;45303;-72
2023/10/24 12:34:44;;;;;;;;;0.67;0.67;;;;;;;;6185715;23;45242;-71
2023/10/24 12:37:10;;;;;;;;;0.00;0.00;;;;;;;;6186040;23;45253;-71
2023/10/24 12:39:35;;;;;;;;;1.00;0.00;;;;;;;;6158535;23;45286;-71
2023/10/24 12:42:00;;;;;;;;;0.67;0.67;;;;;;;;6186183;23;45257;-71
2023/10/24 12:44:25;;;;;;;;;0.67;0.67;;;;;;;;6185141;23;45404;-71
2023/10/24 12:46:51;;;;;;;;;2.67;1.00;;;;;;;;6158921;23;46517;-71
2023/10/24 12:49:16;;;;;;;;;2.67;1.33;;;;;;;;6185721;23;45250;-71
2023/10/24 12:51:42;;;;;;;;;0.67;0.67;;;;;;;;6186308;23;45624;-71
2023/10/24 12:54:07;;;;;;;;;1.00;0.67;;;;;;;;6183989;23;45259;-69
2023/10/24 12:56:33;;;;;;;;;0.67;0.67;;;;;;;;6185355;23;46001;-69
2023/10/24 12:58:58;;;;;;;;;1.00;0.67;;;;;;;;6183931;22;45211;-69
2023/10/24 13:01:24;;;;;;;;;2.00;2.00;;;;;;;;6185792;23;45328;-69
2023/10/24 13:03:51;;;;;;;;;1.00;1.00;;;;;;;;6184571;23;45861;-69
2023/10/24 13:06:16;;;;;;;;;1.67;0.67;;;;;;;;6183976;23;45281;-70
2023/10/24 13:08:41;;;;;;;;;1.67;1.00;;;;;;;;6185323;23;45194;-69
2023/10/24 13:11:06;;;;;;;;;0.67;0.67;;;;;;;;6158331;23;45148;-70
2023/10/24 13:13:31;;;;;;;;;1.67;1.67;;;;;;;;6156878;23;45778;-69
2023/10/24 13:15:56;;;;;;;;;1.33;0.67;;;;;;;;6185182;23;45296;-70
2023/10/24 13:18:22;;;;;;;;;2.00;1.00;;;;;;;;6157642;23;45794;-70
2023/10/24 13:20:47;;;;;;;;;2.00;0.67;;;;;;;;6185627;23;45183;-70
2023/10/24 13:23:12;;;;;;;;;1.00;1.00;;;;;;;;6184833;23;45352;-70
2023/10/24 13:25:38;;;;;;;;;2.67;1.33;;;;;;;;6159136;23;46387;-70
2023/10/24 13:28:04;;;;;;;;;2.00;1.67;;;;;;;;6185829;23;45388;-69
2023/10/24 13:30:31;;;;;;;;;1.00;1.00;;;;;;;;6159857;23;45388;-69
2023/10/24 13:32:56;;;;;;;;;0.67;0.67;;;;;;;;6185975;23;45281;-69
2023/10/24 13:35:22;;;;;;;;;1.67;1.33;;;;;;;;6186204;23;45256;-70
2023/10/24 13:37:47;;;;;;;;;0.67;0.67;;;;;;;;6158754;23;45263;-69
2023/10/24 13:40:12;;;;;;;;;1.00;1.00;;;;;;;;6186403;23;45364;-68
2023/10/24 13:42:37;;;;;;;;;0.67;0.67;;;;;;;;6185058;23;45205;-69
2023/10/24 13:45:03;;;;;;;;;4.50;0.50;;;;;;;;6186084;23;45246;-69
2023/10/24 13:47:28;;;;;;;;;1.00;1.00;;;;;;;;6159283;23;45560;-69
2023/10/24 13:49:53;;;;;;;;;1.33;0.67;;;;;;;;6186558;23;45230;-69
2023/10/24 13:52:19;;;;;;;;;5.00;4.00;;;;;;;;6186281;23;45206;-69
2023/10/24 13:54:46;;;;;;;;;0.67;0.00;;;;;;;;6186334;23;45236;-69
2023/10/24 13:57:11;;;;;;;;;3.00;1.67;;;;;;;;6159504;23;45207;-69
2023/10/24 13:59:36;;;;;;;;;2.33;1.67;;;;;;;;6185406;22;45269;-69
2023/10/24 14:02:02;;;;;;;;;2.00;2.00;;;;;;;;6186060;23;45238;-69
2023/10/24 14:04:27;;;;;;;;;4.33;1.33;;;;;;;;6183581;23;46373;-69
2023/10/24 14:06:52;;;;;;;;;1.67;1.67;;;;;;;;6185085;23;45201;-70
2023/10/24 14:09:17;;;;;;;;;2.33;1.00;;;;;;;;6158564;23;45766;-69
2023/10/24 14:11:43;;;;;;;;;1.00;1.00;;;;;;;;6184043;23;45554;-68
2023/10/24 14:14:08;;;;;;;;;0.00;0.00;;;;;;;;6185040;23;45262;-69
2023/10/24 14:16:33;;;;;;;;;0.67;0.67;;;;;;;;6184825;23;45397;-70
2023/10/24 14:18:59;;;;;;;;;2.00;1.00;;;;;;;;6185511;23;45247;-69
2023/10/24 14:21:24;;;;;;;;;2.00;1.33;;;;;;;;6157303;23;45711;-70
2023/10/24 14:23:50;;;;;;;;;1.67;0.67;;;;;;;;6184736;23;45176;-70
2023/10/24 14:26:15;;;;;;;;;1.00;1.00;;;;;;;;6185028;23;45293;-70
2023/10/24 14:28:40;;;;;;;;;0.00;0.00;;;;;;;;6184520;23;45475;-70
2023/10/24 14:31:05;;;;;;;;;0.00;0.00;;;;;;;;6185035;23;45302;-70
2023/10/24 14:33:30;;;;;;;;;1.67;1.00;;;;;;;;6184404;23;46244;-70
2023/10/24 14:35:56;;;;;;;;;0.33;0.33;;;;;;;;6185777;23;45260;-70
2023/10/24 14:38:21;;;;;;;;;1.00;1.00;;;;;;;;6186185;23;44678;-70
2023/10/24 14:40:47;;;;;;;;;0.67;0.67;;;;;;;;6184323;23;45283;-71
2023/10/24 14:43:13;;;;;;;;;1.33;0.67;;;;;;;;6184337;23;45573;-71
2023/10/24 14:45:40;;;;;;;;;1.67;0.67;;;;;;;;6184580;23;45307;-71
2023/10/24 14:48:06;;;;;;;;;1.00;1.00;;;;;;;;6185460;23;45229;-71
2023/10/24 14:50:33;;;;;;;;;0.67;0.67;;;;;;;;6185790;23;45186;-70
2023/10/24 14:52:58;;;;;;;;;0.00;0.00;;;;;;;;6184732;23;45398;-70
2023/10/24 14:55:23;;;;;;;;;0.67;0.00;;;;;;;;6185376;23;45286;-71
2023/10/24 14:57:48;;;;;;;;;0.33;0.33;;;;;;;;6185733;23;45409;-70
2023/10/24 15:00:14;;;;;;;;;6.33;5.67;;;;;;;;6185604;22;45258;-70
2023/10/24 15:02:40;;;;;;;;;1.67;1.67;;;;;;;;6185178;23;45265;-70
2023/10/24 15:05:05;;;;;;;;;1.00;0.67;;;;;;;;6185883;23;45236;-70
2023/10/24 15:07:31;;;;;;;;;1.33;0.33;;;;;;;;6185889;23;45313;-71
2023/10/24 15:09:56;;;;;;;;;0.67;0.67;;;;;;;;6185379;23;45867;-70
2023/10/24 15:12:21;;;;;;;;;0.67;0.67;;;;;;;;6186166;23;45303;-70
2023/10/24 15:14:46;;;;;;;;;1.67;0.67;;;;;;;;6184934;23;45287;-68
2023/10/24 15:17:12;;;;;;;;;1.00;1.00;;;;;;;;6186522;23;45316;-70
2023/10/24 15:19:37;;;;;;;;;0.33;0.00;;;;;;;;6185852;23;45242;-70
2023/10/24 15:22:03;;;;;;;;;3.00;2.00;;;;;;;;6186359;23;44996;-70
2023/10/24 15:24:29;;;;;;;;;2.67;2.67;;;;;;;;6185756;23;45242;-70
2023/10/24 15:26:54;;;;;;;;;2.00;0.33;;;;;;;;6186622;23;45162;-70
2023/10/24 15:29:19;;;;;;;;;2.00;2.00;;;;;;;;6158281;23;45901;-71
2023/10/24 15:31:44;;;;;;;;;1.00;1.00;;;;;;;;6186336;23;45140;-70
2023/10/24 15:34:10;;;;;;;;;1.33;1.33;;;;;;;;6185496;23;45209;-71
2023/10/24 15:36:36;;;;;;;;;4.33;0.67;;;;;;;;6186382;23;45429;-70
2023/10/24 15:39:01;;;;;;;;;1.00;1.00;;;;;;;;6185408;23;45258;-71
2023/10/24 15:41:27;;;;;;;;;1.67;1.67;;;;;;;;6186224;23;46249;-70
2023/10/24 15:43:52;;;;;;;;;1.33;1.33;;;;;;;;6185386;23;45210;-70
2023/10/24 15:46:19;;;;;;;;;1.33;0.67;;;;;;;;6185836;23;45369;-70
2023/10/24 15:48:51;;;;;;;;;1.33;1.33;;;;;;;;6185019;23;45410;-70
2023/10/24 15:51:16;;;;;;;;;4.67;1.00;;;;;;;;6185936;23;45331;-70
2023/10/24 15:53:43;;;;;;;;;4.67;1.00;;;;;;;;6184277;23;45098;-70
2023/10/24 15:56:08;;;;;;;;;1.00;1.00;;;;;;;;6186556;23;45351;-70
2023/10/24 15:58:34;;;;;;;;;1.00;1.00;;;;;;;;6184720;22;45237;-70
2023/10/24 16:01:04;;;;;;;;;1.00;1.00;;;;;;;;6186178;23;45232;-70
2023/10/24 16:03:29;;;;;;;;;2.00;0.67;;;;;;;;6184599;23;45143;-70
2023/10/24 16:05:54;;;;;;;;;2.33;2.00;;;;;;;;6185997;23;44759;-70
2023/10/24 16:08:19;;;;;;;;;5.00;2.00;;;;;;;;6185050;23;45171;-70
2023/10/24 16:10:45;;;;;;;;;3.00;1.00;;;;;;;;6185945;23;45230;-70
2023/10/24 16:13:10;;;;;;;;;1.00;1.00;;;;;;;;6185321;23;45320;-70
2023/10/24 16:15:35;;;;;;;;;1.67;1.67;;;;;;;;6186368;23;45242;-70
2023/10/24 16:18:01;;;;;;;;;4.00;1.33;;;;;;;;6185455;23;45231;-70
2023/10/24 16:20:26;;;;;;;;;2.67;1.33;;;;;;;;6185859;23;45214;-70
2023/10/24 16:22:51;;;;;;;;;2.00;2.00;;;;;;;;6185737;23;45195;-70
2023/10/24 16:25:17;;;;;;;;;2.67;1.00;;;;;;;;6186044;23;45427;-69
2023/10/24 16:27:42;;;;;;;;;1.00;1.00;;;;;;;;6158412;23;45246;-70
2023/10/24 16:30:08;;;;;;;;;1.00;1.00;;;;;;;;6185683;23;45624;-70
2023/10/24 16:32:33;;;;;;;;;4.00;1.00;;;;;;;;6185598;23;44650;-70
2023/10/24 16:34:59;;;;;;;;;2.00;1.00;;;;;;;;6185731;23;45211;-71
2023/10/24 16:37:26;;;;;;;;;1.00;1.00;;;;;;;;6185771;23;45272;-70
2023/10/24 16:39:51;;;;;;;;;2.33;2.00;;;;;;;;6185192;23;45034;-70
2023/10/24 16:42:17;;;;;;;;;2.67;2.67;;;;;;;;6158624;23;45242;-70
2023/10/24 16:44:42;;;;;;;;;2.00;2.00;;;;;;;;6184127;23;45286;-70
2023/10/24 16:47:07;;;;;;;;;2.00;2.00;;;;;;;;6185350;23;45468;-70
2023/10/24 16:49:32;;;;;;;;;4.67;2.00;;;;;;;;6185247;23;45254;-70
2023/10/24 16:51:58;;;;;;;;;4.33;2.00;;;;;;;;6158296;23;45388;-70
2023/10/24 16:54:23;;;;;;;;;2.00;2.00;;;;;;;;6185565;23;45218;-70
2023/10/24 16:56:48;;;;;;;;;6.67;3.67;;;;;;;;6185691;23;45226;-71
2023/10/24 16:59:14;;;;;;;;;2.00;2.00;;;;;;;;6183448;22;45831;-70
2023/10/24 17:01:39;;;;;;;;;11.67;8.67;;;;;;;;6185503;23;45206;-71
2023/10/24 17:04:04;;;;;;;;;5.00;3.00;;;;;;;;6184199;23;45280;-71
2023/10/24 17:06:29;;;;;;;;;2.67;2.67;;;;;;;;6184846;23;45073;-71
2023/10/24 17:08:56;;;;;;;;;8.00;5.67;;;;;;;;6184445;23;46307;-71
2023/10/24 17:11:22;;;;;;;;;10.33;9.67;;;;;;;;6184226;23;45371;-71
2023/10/24 17:13:47;;;;;;;;;7.00;6.67;;;;;;;;6179310;23;45345;-70
2023/10/24 17:16:13;;;;;;;;;7.00;4.67;;;;;;;;6185256;23;45514;-71
2023/10/24 17:18:38;;;;;;;;;8.67;6.67;;;;;;;;6185172;23;45416;-71
2023/10/24 17:21:04;;;;;;;;;17.00;14.67;;;;;;;;6185151;23;45422;-72
2023/10/24 17:23:30;;;;;;;;;11.00;8.00;;;;;;;;6185421;23;45440;-72
2023/10/24 17:25:56;;;;;;;;;9.00;6.67;;;;;;;;6185154;23;45328;-72
2023/10/24 17:28:22;;;;;;;;;17.33;13.67;;;;;;;;6183787;23;45635;-71
2023/10/24 17:30:47;;;;;;;;;10.00;9.00;;;;;;;;6185066;23;45214;-72
2023/10/24 17:33:12;;;;;;;;;14.00;13.33;;;;;;;;6185142;23;45096;-71
2023/10/24 17:35:37;;;;;;;;;15.67;13.00;;;;;;;;6185152;23;45265;-70
2023/10/24 17:38:03;;;;;;;;;6.00;6.00;;;;;;;;6184230;23;45247;-71
2023/10/24 17:40:29;;;;;;;;;6.67;5.00;;;;;;;;6157833;23;45364;-71
2023/10/24 17:42:55;;;;;;;;;4.33;3.33;;;;;;;;6184780;23;45256;-71
2023/10/24 17:45:20;;;;;;;;;10.67;8.33;;;;;;;;6184647;23;45475;-71
2023/10/24 17:47:45;;;;;;;;;7.00;6.00;;;;;;;;6157910;23;46685;-71
2023/10/24 17:50:12;;;;;;;;;7.00;7.00;;;;;;;;6185039;23;45195;-71
2023/10/24 17:52:37;;;;;;;;;6.67;6.33;;;;;;;;6185178;23;45100;-71
2023/10/24 17:55:03;;;;;;;;;14.67;10.67;;;;;;;;6185063;23;45203;-71
2023/10/24 17:57:28;;;;;;;;;16.67;14.33;;;;;;;;6184840;23;45158;-71
2023/10/24 17:59:55;;;;;;;;;15.33;13.00;;;;;;;;6184183;23;45425;-72
2023/10/24 18:02:21;;;;;;;;;11.00;7.33;;;;;;;;6185459;23;45242;-72
2023/10/24 18:04:46;;;;;;;;;10.67;9.67;;;;;;;;6157456;23;45261;-71
2023/10/24 18:07:13;;;;;;;;;9.00;7.33;;;;;;;;6185250;23;45636;-71
2023/10/24 18:09:38;;;;;;;;;9.67;9.67;;;;;;;;6185243;23;45232;-71
2023/10/24 18:12:03;;;;;;;;;9.67;9.67;;;;;;;;6159579;23;45270;-72
2023/10/24 18:14:28;;;;;;;;;7.67;7.00;;;;;;;;6186013;23;45216;-71
2023/10/24 18:16:54;;;;;;;;;12.67;11.67;;;;;;;;6159674;23;45163;-72
2023/10/24 18:19:19;;;;;;;;;10.67;7.00;;;;;;;;6159397;23;45321;-71
2023/10/24 18:21:45;;;;;;;;;10.33;10.00;;;;;;;;6186673;23;45169;-70
2023/10/24 18:24:13;;;;;;;;;10.67;9.67;;;;;;;;6184953;23;45379;-73
2023/10/24 18:26:38;;;;;;;;;8.67;7.00;;;;;;;;6159208;23;47319;-73
2023/10/24 18:29:03;;;;;;;;;7.33;6.33;;;;;;;;6186088;23;45404;-73
2023/10/24 18:31:28;;;;;;;;;10.33;7.33;;;;;;;;6184989;23;45232;-73
2023/10/24 18:33:53;;;;;;;;;8.00;8.00;;;;;;;;6186425;23;45332;-74
2023/10/24 18:36:19;;;;;;;;;14.33;12.67;;;;;;;;6186563;23;45889;-73
2023/10/24 18:38:44;;;;;;;;;10.00;10.00;;;;;;;;6185561;23;45310;-73
2023/10/24 18:41:10;;;;;;;;;16.00;14.33;;;;;;;;6186700;23;45281;-71
2023/10/24 18:43:36;;;;;;;;;6.00;6.00;;;;;;;;6185677;23;45441;-71
2023/10/24 18:46:08;;;;;;;;;9.00;9.00;;;;;;;;6185727;23;46276;-71
2023/10/24 18:48:33;;;;;;;;;7.67;7.67;;;;;;;;6185734;23;44949;-72
2023/10/24 18:51:09;;;;;;;;;6.00;5.67;;;;;;;;6159478;23;45323;-71
2023/10/24 18:53:34;;;;;;;;;6.00;6.00;;;;;;;;6185767;23;45341;-72
2023/10/24 18:56:00;;;;;;;;;4.33;3.00;;;;;;;;6186108;23;45944;-72
2023/10/24 18:58:25;;;;;;;;;8.33;8.33;;;;;;;;6185405;22;45258;-72
2023/10/24 19:00:54;;;;;;;;;5.33;4.67;;;;;;;;6158388;23;45282;-72
2023/10/24 19:03:19;;;;;;;;;6.00;4.33;;;;;;;;6185728;23;45119;-71
2023/10/24 19:05:45;;;;;;;;;4.00;4.00;;;;;;;;6185699;23;45346;-71
2023/10/24 19:08:10;;;;;;;;;5.33;5.33;;;;;;;;6185850;23;45279;-71
2023/10/24 19:10:35;;;;;;;;;6.00;6.00;;;;;;;;6186497;23;45211;-71
2023/10/24 19:13:00;;;;;;;;;7.67;7.00;;;;;;;;6185767;23;45216;-71
2023/10/24 19:15:26;;;;;;;;;7.33;6.33;;;;;;;;6186228;23;45339;-71
2023/10/24 19:17:52;;;;;;;;;9.00;8.00;;;;;;;;6184272;23;45344;-71
2023/10/24 19:20:17;;;;;;;;;18.33;16.00;;;;;;;;6186116;23;45197;-71
2023/10/24 19:22:42;;;;;;;;;12.00;12.00;;;;;;;;6184875;23;45388;-71
2023/10/24 19:25:08;;;;;;;;;25.00;19.67;;;;;;;;6185045;23;46499;-71
2023/10/24 19:27:33;;;;;;;;;16.33;12.00;;;;;;;;6185584;23;45241;-71
2023/10/24 19:29:59;;;;;;;;;12.33;10.33;;;;;;;;6186121;23;45313;-71
2023/10/24 19:32:30;;;;;;;;;12.67;9.00;;;;;;;;6186276;23;45399;-71
2023/10/24 19:34:55;;;;;;;;;11.67;10.33;;;;;;;;6158638;23;48186;-71
2023/10/24 19:37:24;;;;;;;;;10.00;10.00;;;;;;;;6186104;23;45214;-71
2023/10/24 19:39:50;;;;;;;;;14.00;12.33;;;;;;;;6185904;23;45296;-71
2023/10/24 19:42:16;;;;;;;;;13.67;10.00;;;;;;;;6185691;23;45249;-71
2023/10/24 19:44:41;;;;;;;;;10.67;8.67;;;;;;;;6185119;23;45976;-71
2023/10/24 19:47:07;;;;;;;;;14.67;10.67;;;;;;;;6186266;23;45269;-72
2023/10/24 19:49:35;;;;;;;;;10.33;10.33;;;;;;;;6185997;23;45396;-71
2023/10/24 19:52:02;;;;;;;;;9.00;8.67;;;;;;;;6157875;23;45685;-71
2023/10/24 19:54:27;;;;;;;;;7.33;6.67;;;;;;;;6185514;23;45246;-71
2023/10/24 19:56:54;;;;;;;;;9.00;8.33;;;;;;;;6185607;23;45224;-71
2023/10/24 19:59:20;;;;;;;;;7.33;7.33;;;;;;;;6185131;23;45290;-71
2023/10/24 20:01:46;;;;;;;;;19.33;16.33;;;;;;;;6186015;23;45357;-71
2023/10/24 20:04:13;;;;;;;;;9.33;8.67;;;;;;;;6185830;23;45613;-72
2023/10/24 20:06:39;;;;;;;;;8.33;8.33;;;;;;;;6185471;23;45290;-70
2023/10/24 20:09:06;;;;;;;;;11.00;7.33;;;;;;;;6186043;23;45241;-71
2023/10/24 20:11:32;;;;;;;;;12.33;11.33;;;;;;;;6185346;23;45361;-71
2023/10/24 20:13:57;;;;;;;;;17.33;16.00;;;;;;;;6184175;23;45380;-72
2023/10/24 20:16:25;;;;;;;;;8.33;7.00;;;;;;;;6186074;23;45210;-72
2023/10/24 20:18:50;;;;;;;;;7.00;7.00;;;;;;;;6186264;23;45361;-72
2023/10/24 20:21:16;;;;;;;;;3.00;2.33;;;;;;;;6186180;23;45241;-72
2023/10/24 20:23:48;;;;;;;;;8.33;7.00;;;;;;;;6185981;23;45309;-72
2023/10/24 20:26:13;;;;;;;;;6.00;5.00;;;;;;;;6159014;23;45328;-72
2023/10/24 20:28:38;;;;;;;;;6.33;5.33;;;;;;;;6158551;23;45223;-72
2023/10/24 20:31:03;;;;;;;;;5.33;5.33;;;;;;;;6186446;23;45500;-72
2023/10/24 20:33:28;;;;;;;;;8.67;6.33;;;;;;;;6185486;23;46208;-72
2023/10/24 20:35:54;;;;;;;;;6.00;6.00;;;;;;;;6186235;23;45297;-72
2023/10/24 20:38:19;;;;;;;;;6.00;5.67;;;;;;;;6186000;23;45414;-72
2023/10/24 20:40:44;;;;;;;;;7.00;6.00;;;;;;;;6185581;23;45304;-72
2023/10/24 20:43:09;;;;;;;;;8.00;6.00;;;;;;;;6185152;23;45304;-72
2023/10/24 20:45:34;;;;;;;;;12.00;12.00;;;;;;;;6158876;23;45286;-72
2023/10/24 20:48:00;;;;;;;;;6.33;6.33;;;;;;;;6186086;23;45559;-72
2023/10/24 20:50:25;;;;;;;;;8.00;8.00;;;;;;;;6186008;23;45195;-72
2023/10/24 20:52:50;;;;;;;;;10.00;7.33;;;;;;;;6185661;23;45179;-72
2023/10/24 20:55:15;;;;;;;;;6.33;5.00;;;;;;;;6183870;23;45294;-72
2023/10/24 20:57:41;;;;;;;;;9.33;8.33;;;;;;;;6158637;23;45292;-72
2023/10/24 21:00:07;;;;;;;;;7.67;7.67;;;;;;;;6181544;22;45205;-72
2023/10/24 21:02:32;;;;;;;;;6.00;5.33;;;;;;;;6216265;22;45342;-73
2023/10/24 21:04:57;;;;;;;;;7.00;4.33;;;;;;;;6215705;22;45222;-71
2023/10/24 21:07:22;;;;;;;;;4.00;4.00;;;;;;;;6216226;22;45664;-72
2023/10/24 21:09:47;;;;;;;;;4.33;4.33;;;;;;;;6215819;22;45150;-71
2023/10/24 21:12:14;;;;;;;;;6.33;6.33;;;;;;;;6215822;22;46158;-72
2023/10/24 21:14:39;;;;;;;;;2.00;2.00;;;;;;;;6215740;22;45176;-71
2023/10/24 21:17:04;;;;;;;;;4.67;4.67;;;;;;;;6214190;22;45470;-71
